sensor_id;sensor_type;location;lat;lon;timestamp;P1;durP1;ratioP1;P2;durP2;ratioP2
49942;SDS011;36011;53.362;58.948;2023-06-22T00:00:36;5.10;;;3.42;;
49942;SDS011;36011;53.362;58.948;2023-06-22T00:03:40;6.32;;;3.88;;
49942;SDS011;36011;53.362;58.948;2023-06-22T00:09:50;5.32;;;3.75;;
49942;SDS011;36011;53.362;58.948;2023-06-22T00:12:58;5.78;;;3.65;;
49942;SDS011;36011;53.362;58.948;2023-06-22T00:16:07;6.22;;;3.90;;
49942;SDS011;36011;53.362;58.948;2023-06-22T00:19:14;5.63;;;3.97;;
49942;SDS011;36011;53.362;58.948;2023-06-22T00:22:25;6.28;;;4.00;;
49942;SDS011;36011;53.362;58.948;2023-06-22T00:25:33;5.68;;;4.10;;
49942;SDS011;36011;53.362;58.948;2023-06-22T00:28:41;7.80;;;3.53;;
49942;SDS011;36011;53.362;58.948;2023-06-22T00:34:48;4.50;;;3.45;;
49942;SDS011;36011;53.362;58.948;2023-06-22T00:37:58;6.35;;;3.45;;
49942;SDS011;36011;53.362;58.948;2023-06-22T00:41:04;5.53;;;3.33;;
49942;SDS011;36011;53.362;58.948;2023-06-22T00:44:08;5.80;;;3.80;;
49942;SDS011;36011;53.362;58.948;2023-06-22T00:47:14;7.40;;;5.30;;
49942;SDS011;36011;53.362;58.948;2023-06-22T00:50:22;5.72;;;3.83;;
49942;SDS011;36011;53.362;58.948;2023-06-22T00:53:29;6.38;;;4.03;;
49942;SDS011;36011;53.362;58.948;2023-06-22T00:56:40;8.55;;;4.72;;
49942;SDS011;36011;53.362;58.948;2023-06-22T00:59:48;5.53;;;4.38;;
49942;SDS011;36011;53.362;58.948;2023-06-22T01:02:52;4.60;;;3.53;;
49942;SDS011;36011;53.362;58.948;2023-06-22T01:05:55;5.63;;;3.70;;
49942;SDS011;36011;53.362;58.948;2023-06-22T01:09:14;5.93;;;4.35;;
49942;SDS011;36011;53.362;58.948;2023-06-22T01:12:27;5.93;;;3.65;;
49942;SDS011;36011;53.362;58.948;2023-06-22T01:15:53;5.35;;;3.47;;
49942;SDS011;36011;53.362;58.948;2023-06-22T01:22:33;6.00;;;3.78;;
49942;SDS011;36011;53.362;58.948;2023-06-22T01:29:41;5.30;;;4.22;;
49942;SDS011;36011;53.362;58.948;2023-06-22T01:32:49;5.45;;;3.83;;
49942;SDS011;36011;53.362;58.948;2023-06-22T01:35:55;5.93;;;4.03;;
49942;SDS011;36011;53.362;58.948;2023-06-22T01:38:56;4.82;;;3.72;;
49942;SDS011;36011;53.362;58.948;2023-06-22T01:42:01;4.70;;;3.83;;
49942;SDS011;36011;53.362;58.948;2023-06-22T01:45:03;4.80;;;3.78;;
49942;SDS011;36011;53.362;58.948;2023-06-22T01:48:09;6.50;;;4.13;;
49942;SDS011;36011;53.362;58.948;2023-06-22T01:51:13;6.00;;;3.45;;
49942;SDS011;36011;53.362;58.948;2023-06-22T01:54:17;5.38;;;3.72;;
49942;SDS011;36011;53.362;58.948;2023-06-22T01:57:21;7.15;;;3.97;;
49942;SDS011;36011;53.362;58.948;2023-06-22T02:00:22;6.93;;;3.60;;
49942;SDS011;36011;53.362;58.948;2023-06-22T02:03:32;7.70;;;3.72;;
49942;SDS011;36011;53.362;58.948;2023-06-22T02:06:42;8.52;;;4.28;;
49942;SDS011;36011;53.362;58.948;2023-06-22T02:09:51;7.68;;;3.95;;
49942;SDS011;36011;53.362;58.948;2023-06-22T02:12:58;6.75;;;4.30;;
49942;SDS011;36011;53.362;58.948;2023-06-22T02:16:03;8.10;;;3.75;;
49942;SDS011;36011;53.362;58.948;2023-06-22T02:19:05;7.93;;;4.05;;
49942;SDS011;36011;53.362;58.948;2023-06-22T02:22:07;5.97;;;3.70;;
49942;SDS011;36011;53.362;58.948;2023-06-22T02:25:08;5.38;;;3.92;;
49942;SDS011;36011;53.362;58.948;2023-06-22T02:28:13;6.90;;;4.63;;
49942;SDS011;36011;53.362;58.948;2023-06-22T02:31:17;6.53;;;4.00;;
49942;SDS011;36011;53.362;58.948;2023-06-22T02:34:21;6.05;;;3.67;;
49942;SDS011;36011;53.362;58.948;2023-06-22T02:37:25;4.80;;;3.95;;
49942;SDS011;36011;53.362;58.948;2023-06-22T02:40:30;5.03;;;3.63;;
49942;SDS011;36011;53.362;58.948;2023-06-22T02:43:35;5.50;;;4.03;;
49942;SDS011;36011;53.362;58.948;2023-06-22T02:46:40;4.88;;;3.30;;
49942;SDS011;36011;53.362;58.948;2023-06-22T02:49:41;7.40;;;3.95;;
49942;SDS011;36011;53.362;58.948;2023-06-22T02:52:50;5.30;;;4.05;;
49942;SDS011;36011;53.362;58.948;2023-06-22T02:55:53;4.07;;;2.97;;
49942;SDS011;36011;53.362;58.948;2023-06-22T02:58:57;7.78;;;4.68;;
49942;SDS011;36011;53.362;58.948;2023-06-22T03:02:02;6.97;;;4.20;;
49942;SDS011;36011;53.362;58.948;2023-06-22T03:05:06;8.23;;;4.00;;
49942;SDS011;36011;53.362;58.948;2023-06-22T03:08:10;12.00;;;4.68;;
49942;SDS011;36011;53.362;58.948;2023-06-22T03:11:16;10.75;;;5.20;;
49942;SDS011;36011;53.362;58.948;2023-06-22T03:14:22;9.32;;;4.80;;
49942;SDS011;36011;53.362;58.948;2023-06-22T03:17:25;12.40;;;5.63;;
49942;SDS011;36011;53.362;58.948;2023-06-22T03:20:36;15.80;;;5.18;;
49942;SDS011;36011;53.362;58.948;2023-06-22T03:23:44;8.38;;;4.63;;
49942;SDS011;36011;53.362;58.948;2023-06-22T03:26:46;6.57;;;4.05;;
49942;SDS011;36011;53.362;58.948;2023-06-22T03:29:53;7.80;;;3.63;;
49942;SDS011;36011;53.362;58.948;2023-06-22T03:32:56;5.30;;;3.83;;
49942;SDS011;36011;53.362;58.948;2023-06-22T03:36:00;5.43;;;3.63;;
49942;SDS011;36011;53.362;58.948;2023-06-22T03:39:07;6.47;;;3.15;;
49942;SDS011;36011;53.362;58.948;2023-06-22T03:42:11;5.03;;;3.03;;
49942;SDS011;36011;53.362;58.948;2023-06-22T03:45:20;5.00;;;3.28;;
49942;SDS011;36011;53.362;58.948;2023-06-22T03:48:25;4.63;;;2.88;;
49942;SDS011;36011;53.362;58.948;2023-06-22T03:51:30;4.53;;;2.40;;
49942;SDS011;36011;53.362;58.948;2023-06-22T03:54:32;4.57;;;2.72;;
49942;SDS011;36011;53.362;58.948;2023-06-22T03:57:39;6.75;;;3.47;;
49942;SDS011;36011;53.362;58.948;2023-06-22T04:00:46;11.32;;;4.93;;
49942;SDS011;36011;53.362;58.948;2023-06-22T04:03:51;9.27;;;3.30;;
49942;SDS011;36011;53.362;58.948;2023-06-22T04:06:53;6.13;;;2.63;;
49942;SDS011;36011;53.362;58.948;2023-06-22T04:10:01;5.50;;;2.70;;
49942;SDS011;36011;53.362;58.948;2023-06-22T04:13:05;3.30;;;2.38;;
49942;SDS011;36011;53.362;58.948;2023-06-22T04:16:12;6.95;;;2.83;;
49942;SDS011;36011;53.362;58.948;2023-06-22T04:19:19;4.75;;;2.05;;
49942;SDS011;36011;53.362;58.948;2023-06-22T04:25:28;3.45;;;1.77;;
49942;SDS011;36011;53.362;58.948;2023-06-22T04:28:34;5.80;;;2.28;;
49942;SDS011;36011;53.362;58.948;2023-06-22T04:31:41;3.42;;;1.83;;
49942;SDS011;36011;53.362;58.948;2023-06-22T04:34:47;5.80;;;2.17;;
49942;SDS011;36011;53.362;58.948;2023-06-22T04:40:53;3.40;;;1.92;;
49942;SDS011;36011;53.362;58.948;2023-06-22T04:44:01;2.70;;;1.77;;
49942;SDS011;36011;53.362;58.948;2023-06-22T04:47:06;2.75;;;1.85;;
49942;SDS011;36011;53.362;58.948;2023-06-22T04:50:09;4.05;;;1.90;;
49942;SDS011;36011;53.362;58.948;2023-06-22T04:53:15;2.70;;;2.00;;
49942;SDS011;36011;53.362;58.948;2023-06-22T04:56:25;2.00;;;1.50;;
49942;SDS011;36011;53.362;58.948;2023-06-22T04:59:31;6.30;;;1.92;;
49942;SDS011;36011;53.362;58.948;2023-06-22T05:02:35;2.53;;;1.63;;
49942;SDS011;36011;53.362;58.948;2023-06-22T05:05:38;2.65;;;1.52;;
49942;SDS011;36011;53.362;58.948;2023-06-22T05:08:42;3.80;;;1.58;;
49942;SDS011;36011;53.362;58.948;2023-06-22T05:11:46;2.45;;;2.00;;
49942;SDS011;36011;53.362;58.948;2023-06-22T05:14:48;4.30;;;1.65;;
49942;SDS011;36011;53.362;58.948;2023-06-22T05:17:50;1.95;;;1.20;;
49942;SDS011;36011;53.362;58.948;2023-06-22T05:20:54;2.58;;;1.17;;
49942;SDS011;36011;53.362;58.948;2023-06-22T05:23:58;3.03;;;1.13;;
49942;SDS011;36011;53.362;58.948;2023-06-22T05:27:00;1.88;;;1.60;;
49942;SDS011;36011;53.362;58.948;2023-06-22T05:30:10;1.55;;;1.20;;
49942;SDS011;36011;53.362;58.948;2023-06-22T05:33:15;1.58;;;1.20;;
49942;SDS011;36011;53.362;58.948;2023-06-22T05:36:22;2.70;;;1.60;;
49942;SDS011;36011;53.362;58.948;2023-06-22T05:39:31;3.38;;;1.63;;
49942;SDS011;36011;53.362;58.948;2023-06-22T05:42:37;2.88;;;1.20;;
49942;SDS011;36011;53.362;58.948;2023-06-22T05:45:46;3.35;;;1.40;;
49942;SDS011;36011;53.362;58.948;2023-06-22T05:48:52;1.20;;;1.00;;
49942;SDS011;36011;53.362;58.948;2023-06-22T05:52:00;1.92;;;1.20;;
49942;SDS011;36011;53.362;58.948;2023-06-22T05:55:05;1.60;;;1.30;;
49942;SDS011;36011;53.362;58.948;2023-06-22T05:58:11;2.95;;;1.27;;
49942;SDS011;36011;53.362;58.948;2023-06-22T06:04:22;1.40;;;1.23;;
49942;SDS011;36011;53.362;58.948;2023-06-22T06:07:27;1.23;;;1.10;;
49942;SDS011;36011;53.362;58.948;2023-06-22T06:10:33;3.85;;;1.50;;
49942;SDS011;36011;53.362;58.948;2023-06-22T06:13:36;1.58;;;1.27;;
49942;SDS011;36011;53.362;58.948;2023-06-22T06:16:39;2.17;;;1.23;;
49942;SDS011;36011;53.362;58.948;2023-06-22T06:19:46;2.30;;;1.33;;
49942;SDS011;36011;53.362;58.948;2023-06-22T06:22:53;1.30;;;1.08;;
49942;SDS011;36011;53.362;58.948;2023-06-22T06:25:56;1.88;;;1.52;;
49942;SDS011;36011;53.362;58.948;2023-06-22T06:29:05;2.58;;;1.30;;
49942;SDS011;36011;53.362;58.948;2023-06-22T06:32:09;2.05;;;1.35;;
49942;SDS011;36011;53.362;58.948;2023-06-22T06:35:14;1.45;;;1.35;;
49942;SDS011;36011;53.362;58.948;2023-06-22T06:38:18;2.30;;;1.63;;
49942;SDS011;36011;53.362;58.948;2023-06-22T06:41:20;1.20;;;1.08;;
49942;SDS011;36011;53.362;58.948;2023-06-22T06:44:21;1.67;;;1.10;;
49942;SDS011;36011;53.362;58.948;2023-06-22T06:47:23;1.88;;;1.38;;
49942;SDS011;36011;53.362;58.948;2023-06-22T06:50:30;5.78;;;1.60;;
49942;SDS011;36011;53.362;58.948;2023-06-22T06:53:33;2.70;;;1.45;;
49942;SDS011;36011;53.362;58.948;2023-06-22T06:56:36;1.90;;;1.38;;
49942;SDS011;36011;53.362;58.948;2023-06-22T06:59:40;1.77;;;1.67;;
49942;SDS011;36011;53.362;58.948;2023-06-22T07:02:46;2.45;;;1.67;;
49942;SDS011;36011;53.362;58.948;2023-06-22T07:05:50;2.05;;;1.70;;
49942;SDS011;36011;53.362;58.948;2023-06-22T07:08:52;3.53;;;1.80;;
49942;SDS011;36011;53.362;58.948;2023-06-22T07:11:55;2.15;;;1.27;;
49942;SDS011;36011;53.362;58.948;2023-06-22T07:15:06;1.38;;;1.20;;
49942;SDS011;36011;53.362;58.948;2023-06-22T07:18:12;1.88;;;1.48;;
49942;SDS011;36011;53.362;58.948;2023-06-22T07:21:16;2.17;;;1.58;;
49942;SDS011;36011;53.362;58.948;2023-06-22T07:24:22;2.17;;;1.55;;
49942;SDS011;36011;53.362;58.948;2023-06-22T07:27:27;2.53;;;1.73;;
49942;SDS011;36011;53.362;58.948;2023-06-22T07:30:36;1.95;;;1.63;;
49942;SDS011;36011;53.362;58.948;2023-06-22T07:33:40;1.90;;;1.55;;
49942;SDS011;36011;53.362;58.948;2023-06-22T07:36:50;1.90;;;1.42;;
49942;SDS011;36011;53.362;58.948;2023-06-22T07:39:54;3.28;;;1.85;;
49942;SDS011;36011;53.362;58.948;2023-06-22T07:43:01;2.53;;;1.80;;
49942;SDS011;36011;53.362;58.948;2023-06-22T07:46:08;2.63;;;1.80;;
49942;SDS011;36011;53.362;58.948;2023-06-22T07:49:15;3.03;;;1.83;;
49942;SDS011;36011;53.362;58.948;2023-06-22T07:52:24;3.67;;;1.73;;
49942;SDS011;36011;53.362;58.948;2023-06-22T07:55:30;2.60;;;1.90;;
49942;SDS011;36011;53.362;58.948;2023-06-22T07:58:34;2.35;;;1.77;;
49942;SDS011;36011;53.362;58.948;2023-06-22T08:01:38;1.70;;;1.50;;
49942;SDS011;36011;53.362;58.948;2023-06-22T08:04:43;4.55;;;1.65;;
49942;SDS011;36011;53.362;58.948;2023-06-22T08:07:46;1.70;;;1.45;;
49942;SDS011;36011;53.362;58.948;2023-06-22T08:10:50;2.33;;;1.73;;
49942;SDS011;36011;53.362;58.948;2023-06-22T08:13:55;2.33;;;1.88;;
49942;SDS011;36011;53.362;58.948;2023-06-22T08:16:58;1.70;;;1.30;;
49942;SDS011;36011;53.362;58.948;2023-06-22T08:20:00;2.95;;;1.35;;
49942;SDS011;36011;53.362;58.948;2023-06-22T08:23:02;2.03;;;1.40;;
49942;SDS011;36011;53.362;58.948;2023-06-22T08:26:09;1.48;;;1.27;;
49942;SDS011;36011;53.362;58.948;2023-06-22T08:29:16;1.30;;;1.08;;
49942;SDS011;36011;53.362;58.948;2023-06-22T08:32:17;2.55;;;1.30;;
49942;SDS011;36011;53.362;58.948;2023-06-22T08:35:24;1.70;;;1.00;;
49942;SDS011;36011;53.362;58.948;2023-06-22T08:38:25;1.88;;;1.15;;
49942;SDS011;36011;53.362;58.948;2023-06-22T08:41:29;2.03;;;1.15;;
49942;SDS011;36011;53.362;58.948;2023-06-22T08:44:34;1.35;;;1.25;;
49942;SDS011;36011;53.362;58.948;2023-06-22T08:47:39;1.00;;;0.93;;
49942;SDS011;36011;53.362;58.948;2023-06-22T08:50:41;1.90;;;1.33;;
49942;SDS011;36011;53.362;58.948;2023-06-22T08:53:48;1.60;;;1.23;;
49942;SDS011;36011;53.362;58.948;2023-06-22T08:56:49;1.73;;;1.60;;
49942;SDS011;36011;53.362;58.948;2023-06-22T08:59:56;2.42;;;1.70;;
49942;SDS011;36011;53.362;58.948;2023-06-22T09:03:01;1.52;;;1.35;;
49942;SDS011;36011;53.362;58.948;2023-06-22T09:06:05;1.77;;;1.63;;
49942;SDS011;36011;53.362;58.948;2023-06-22T09:09:15;7.57;;;2.58;;
49942;SDS011;36011;53.362;58.948;2023-06-22T09:12:19;1.70;;;1.50;;
49942;SDS011;36011;53.362;58.948;2023-06-22T09:15:23;1.50;;;1.35;;
49942;SDS011;36011;53.362;58.948;2023-06-22T09:18:27;2.35;;;1.23;;
49942;SDS011;36011;53.362;58.948;2023-06-22T09:21:31;1.30;;;1.20;;
49942;SDS011;36011;53.362;58.948;2023-06-22T09:24:33;1.27;;;1.13;;
49942;SDS011;36011;53.362;58.948;2023-06-22T09:27:36;1.85;;;1.50;;
49942;SDS011;36011;53.362;58.948;2023-06-22T09:30:42;1.60;;;1.30;;
49942;SDS011;36011;53.362;58.948;2023-06-22T09:33:47;1.90;;;1.52;;
49942;SDS011;36011;53.362;58.948;2023-06-22T09:36:48;1.88;;;1.35;;
49942;SDS011;36011;53.362;58.948;2023-06-22T09:39:55;1.90;;;1.25;;
49942;SDS011;36011;53.362;58.948;2023-06-22T09:42:58;2.55;;;1.40;;
49942;SDS011;36011;53.362;58.948;2023-06-22T09:46:02;2.25;;;1.95;;
49942;SDS011;36011;53.362;58.948;2023-06-22T09:49:07;2.30;;;1.65;;
49942;SDS011;36011;53.362;58.948;2023-06-22T09:52:15;2.83;;;1.70;;
49942;SDS011;36011;53.362;58.948;2023-06-22T09:55:17;1.83;;;1.60;;
49942;SDS011;36011;53.362;58.948;2023-06-22T09:58:20;2.00;;;1.80;;
49942;SDS011;36011;53.362;58.948;2023-06-22T10:01:24;2.47;;;1.80;;
49942;SDS011;36011;53.362;58.948;2023-06-22T10:04:34;2.08;;;1.35;;
49942;SDS011;36011;53.362;58.948;2023-06-22T10:07:40;3.35;;;1.50;;
49942;SDS011;36011;53.362;58.948;2023-06-22T10:10:46;1.60;;;1.45;;
49942;SDS011;36011;53.362;58.948;2023-06-22T10:13:47;2.08;;;1.33;;
49942;SDS011;36011;53.362;58.948;2023-06-22T10:16:52;1.77;;;1.58;;
49942;SDS011;36011;53.362;58.948;2023-06-22T10:20:02;1.73;;;1.27;;
49942;SDS011;36011;53.362;58.948;2023-06-22T10:23:23;2.60;;;1.40;;
49942;SDS011;36011;53.362;58.948;2023-06-22T10:26:24;2.00;;;1.50;;
49942;SDS011;36011;53.362;58.948;2023-06-22T10:29:26;1.77;;;1.30;;
49942;SDS011;36011;53.362;58.948;2023-06-22T10:32:28;3.47;;;1.92;;
49942;SDS011;36011;53.362;58.948;2023-06-22T10:35:29;1.88;;;1.35;;
49942;SDS011;36011;53.362;58.948;2023-06-22T10:38:33;1.60;;;1.50;;
49942;SDS011;36011;53.362;58.948;2023-06-22T10:41:36;3.97;;;1.70;;
49942;SDS011;36011;53.362;58.948;2023-06-22T10:44:40;3.75;;;1.98;;
49942;SDS011;36011;53.362;58.948;2023-06-22T10:47:46;2.75;;;1.60;;
49942;SDS011;36011;53.362;58.948;2023-06-22T10:50:50;1.98;;;1.60;;
49942;SDS011;36011;53.362;58.948;2023-06-22T10:53:51;1.95;;;1.40;;
49942;SDS011;36011;53.362;58.948;2023-06-22T10:56:54;2.50;;;2.00;;
49942;SDS011;36011;53.362;58.948;2023-06-22T10:59:58;2.10;;;1.50;;
49942;SDS011;36011;53.362;58.948;2023-06-22T11:03:04;2.60;;;1.80;;
49942;SDS011;36011;53.362;58.948;2023-06-22T11:06:08;3.17;;;1.80;;
49942;SDS011;36011;53.362;58.948;2023-06-22T11:09:10;4.43;;;2.50;;
49942;SDS011;36011;53.362;58.948;2023-06-22T11:12:12;1.55;;;1.40;;
49942;SDS011;36011;53.362;58.948;2023-06-22T11:15:15;4.50;;;1.75;;
49942;SDS011;36011;53.362;58.948;2023-06-22T11:18:19;2.53;;;1.85;;
49942;SDS011;36011;53.362;58.948;2023-06-22T11:21:23;2.08;;;1.42;;
49942;SDS011;36011;53.362;58.948;2023-06-22T11:24:25;1.27;;;1.08;;
49942;SDS011;36011;53.362;58.948;2023-06-22T11:27:26;1.75;;;1.10;;
49942;SDS011;36011;53.362;58.948;2023-06-22T11:30:30;2.05;;;1.30;;
49942;SDS011;36011;53.362;58.948;2023-06-22T11:33:31;2.20;;;1.65;;
49942;SDS011;36011;53.362;58.948;2023-06-22T11:36:33;1.33;;;1.20;;
49942;SDS011;36011;53.362;58.948;2023-06-22T11:39:38;2.90;;;1.35;;
49942;SDS011;36011;53.362;58.948;2023-06-22T11:42:45;1.63;;;1.30;;
49942;SDS011;36011;53.362;58.948;2023-06-22T11:45:46;2.40;;;1.63;;
49942;SDS011;36011;53.362;58.948;2023-06-22T11:48:53;2.25;;;1.50;;
49942;SDS011;36011;53.362;58.948;2023-06-22T11:51:54;2.10;;;1.23;;
49942;SDS011;36011;53.362;58.948;2023-06-22T11:55:01;1.52;;;1.23;;
49942;SDS011;36011;53.362;58.948;2023-06-22T11:58:04;2.58;;;1.30;;
49942;SDS011;36011;53.362;58.948;2023-06-22T12:01:11;2.92;;;1.40;;
49942;SDS011;36011;53.362;58.948;2023-06-22T12:04:15;2.13;;;1.50;;
49942;SDS011;36011;53.362;58.948;2023-06-22T12:07:19;1.73;;;1.40;;
49942;SDS011;36011;53.362;58.948;2023-06-22T12:10:25;8.60;;;1.77;;
49942;SDS011;36011;53.362;58.948;2023-06-22T12:13:29;1.50;;;1.08;;
49942;SDS011;36011;53.362;58.948;2023-06-22T12:16:30;1.60;;;1.10;;
49942;SDS011;36011;53.362;58.948;2023-06-22T12:19:36;1.20;;;1.00;;
49942;SDS011;36011;53.362;58.948;2023-06-22T12:22:40;1.35;;;1.10;;
49942;SDS011;36011;53.362;58.948;2023-06-22T12:25:44;3.57;;;1.30;;
49942;SDS011;36011;53.362;58.948;2023-06-22T12:28:48;1.42;;;0.98;;
49942;SDS011;36011;53.362;58.948;2023-06-22T12:31:52;1.15;;;0.93;;
49942;SDS011;36011;53.362;58.948;2023-06-22T12:34:56;1.35;;;1.08;;
49942;SDS011;36011;53.362;58.948;2023-06-22T12:37:58;1.52;;;1.00;;
49942;SDS011;36011;53.362;58.948;2023-06-22T12:41:00;2.75;;;1.40;;
49942;SDS011;36011;53.362;58.948;2023-06-22T12:44:01;1.05;;;0.93;;
49942;SDS011;36011;53.362;58.948;2023-06-22T12:47:06;2.63;;;1.40;;
49942;SDS011;36011;53.362;58.948;2023-06-22T12:50:12;1.98;;;1.23;;
49942;SDS011;36011;53.362;58.948;2023-06-22T12:53:14;1.83;;;1.30;;
49942;SDS011;36011;53.362;58.948;2023-06-22T12:56:20;2.90;;;1.20;;
49942;SDS011;36011;53.362;58.948;2023-06-22T12:59:23;2.70;;;1.52;;
49942;SDS011;36011;53.362;58.948;2023-06-22T13:02:25;2.30;;;1.60;;
49942;SDS011;36011;53.362;58.948;2023-06-22T13:05:26;1.35;;;1.25;;
49942;SDS011;36011;53.362;58.948;2023-06-22T13:08:30;3.22;;;1.65;;
49942;SDS011;36011;53.362;58.948;2023-06-22T13:11:33;3.95;;;1.85;;
49942;SDS011;36011;53.362;58.948;2023-06-22T13:14:35;2.72;;;1.40;;
49942;SDS011;36011;53.362;58.948;2023-06-22T13:17:36;2.70;;;1.20;;
49942;SDS011;36011;53.362;58.948;2023-06-22T13:20:42;2.30;;;1.05;;
49942;SDS011;36011;53.362;58.948;2023-06-22T13:23:48;2.78;;;1.40;;
49942;SDS011;36011;53.362;58.948;2023-06-22T13:29:52;1.70;;;1.03;;
49942;SDS011;36011;53.362;58.948;2023-06-22T13:33:00;2.25;;;1.50;;
49942;SDS011;36011;53.362;58.948;2023-06-22T13:36:05;2.50;;;1.33;;
49942;SDS011;36011;53.362;58.948;2023-06-22T13:39:07;2.28;;;1.27;;
49942;SDS011;36011;53.362;58.948;2023-06-22T13:42:13;2.00;;;1.40;;
49942;SDS011;36011;53.362;58.948;2023-06-22T13:45:17;2.25;;;1.23;;
49942;SDS011;36011;53.362;58.948;2023-06-22T13:48:24;1.55;;;1.30;;
49942;SDS011;36011;53.362;58.948;2023-06-22T13:51:31;1.15;;;0.80;;
49942;SDS011;36011;53.362;58.948;2023-06-22T13:54:35;1.98;;;1.23;;
49942;SDS011;36011;53.362;58.948;2023-06-22T13:57:37;2.40;;;1.38;;
49942;SDS011;36011;53.362;58.948;2023-06-22T14:00:38;2.30;;;1.48;;
49942;SDS011;36011;53.362;58.948;2023-06-22T14:03:42;2.78;;;1.20;;
49942;SDS011;36011;53.362;58.948;2023-06-22T14:06:50;1.98;;;1.10;;
49942;SDS011;36011;53.362;58.948;2023-06-22T14:09:53;1.83;;;1.45;;
49942;SDS011;36011;53.362;58.948;2023-06-22T14:15:57;3.25;;;1.23;;
49942;SDS011;36011;53.362;58.948;2023-06-22T14:19:02;1.15;;;0.90;;
49942;SDS011;36011;53.362;58.948;2023-06-22T14:22:06;4.22;;;1.02;;
49942;SDS011;36011;53.362;58.948;2023-06-22T14:25:12;1.48;;;1.17;;
49942;SDS011;36011;53.362;58.948;2023-06-22T14:28:16;3.58;;;1.20;;
49942;SDS011;36011;53.362;58.948;2023-06-22T14:31:17;4.10;;;1.50;;
49942;SDS011;36011;53.362;58.948;2023-06-22T14:34:22;2.05;;;0.77;;
49942;SDS011;36011;53.362;58.948;2023-06-22T14:37:24;1.73;;;1.00;;
49942;SDS011;36011;53.362;58.948;2023-06-22T14:40:28;1.90;;;1.08;;
49942;SDS011;36011;53.362;58.948;2023-06-22T14:43:29;1.95;;;1.17;;
49942;SDS011;36011;53.362;58.948;2023-06-22T14:46:37;2.78;;;1.40;;
49942;SDS011;36011;53.362;58.948;2023-06-22T14:49:38;3.55;;;2.25;;
49942;SDS011;36011;53.362;58.948;2023-06-22T14:52:42;9.38;;;3.78;;
49942;SDS011;36011;53.362;58.948;2023-06-22T14:55:46;5.70;;;3.25;;
49942;SDS011;36011;53.362;58.948;2023-06-22T14:58:47;3.40;;;2.00;;
49942;SDS011;36011;53.362;58.948;2023-06-22T15:01:51;2.85;;;1.77;;
49942;SDS011;36011;53.362;58.948;2023-06-22T15:07:57;2.95;;;1.52;;
49942;SDS011;36011;53.362;58.948;2023-06-22T15:10:59;2.67;;;1.17;;
49942;SDS011;36011;53.362;58.948;2023-06-22T15:14:03;2.15;;;1.45;;
49942;SDS011;36011;53.362;58.948;2023-06-22T15:17:08;4.85;;;1.50;;
49942;SDS011;36011;53.362;58.948;2023-06-22T15:20:11;4.30;;;2.00;;
49942;SDS011;36011;53.362;58.948;2023-06-22T15:23:13;4.78;;;1.70;;
49942;SDS011;36011;53.362;58.948;2023-06-22T15:26:17;2.90;;;1.50;;
49942;SDS011;36011;53.362;58.948;2023-06-22T15:29:23;2.55;;;1.50;;
49942;SDS011;36011;53.362;58.948;2023-06-22T15:32:25;3.00;;;1.88;;
49942;SDS011;36011;53.362;58.948;2023-06-22T15:35:28;3.17;;;1.63;;
49942;SDS011;36011;53.362;58.948;2023-06-22T15:38:35;2.75;;;1.85;;
49942;SDS011;36011;53.362;58.948;2023-06-22T15:41:41;3.35;;;2.17;;
49942;SDS011;36011;53.362;58.948;2023-06-22T15:44:43;6.18;;;3.25;;
49942;SDS011;36011;53.362;58.948;2023-06-22T15:47:46;5.13;;;2.78;;
49942;SDS011;36011;53.362;58.948;2023-06-22T15:50:53;4.38;;;2.55;;
49942;SDS011;36011;53.362;58.948;2023-06-22T15:54:02;6.05;;;3.42;;
49942;SDS011;36011;53.362;58.948;2023-06-22T15:57:11;5.63;;;3.08;;
49942;SDS011;36011;53.362;58.948;2023-06-22T16:00:17;4.53;;;3.08;;
49942;SDS011;36011;53.362;58.948;2023-06-22T16:03:19;2.80;;;2.35;;
49942;SDS011;36011;53.362;58.948;2023-06-22T16:06:21;7.28;;;2.65;;
49942;SDS011;36011;53.362;58.948;2023-06-22T16:09:23;11.65;;;4.20;;
49942;SDS011;36011;53.362;58.948;2023-06-22T16:12:27;8.90;;;4.47;;
49942;SDS011;36011;53.362;58.948;2023-06-22T16:15:32;11.07;;;3.85;;
49942;SDS011;36011;53.362;58.948;2023-06-22T16:18:38;14.75;;;4.90;;
49942;SDS011;36011;53.362;58.948;2023-06-22T16:21:43;12.63;;;4.78;;
49942;SDS011;36011;53.362;58.948;2023-06-22T16:24:47;5.47;;;3.17;;
49942;SDS011;36011;53.362;58.948;2023-06-22T16:27:54;5.53;;;3.05;;
49942;SDS011;36011;53.362;58.948;2023-06-22T16:30:58;2.42;;;2.13;;
49942;SDS011;36011;53.362;58.948;2023-06-22T16:34:05;4.60;;;3.22;;
49942;SDS011;36011;53.362;58.948;2023-06-22T16:37:07;3.58;;;2.72;;
49942;SDS011;36011;53.362;58.948;2023-06-22T16:40:11;4.72;;;3.17;;
49942;SDS011;36011;53.362;58.948;2023-06-22T16:43:20;3.10;;;2.42;;
49942;SDS011;36011;53.362;58.948;2023-06-22T16:46:27;3.22;;;2.10;;
49942;SDS011;36011;53.362;58.948;2023-06-22T16:49:35;5.65;;;1.90;;
49942;SDS011;36011;53.362;58.948;2023-06-22T16:52:39;4.78;;;2.63;;
49942;SDS011;36011;53.362;58.948;2023-06-22T16:55:48;4.90;;;2.67;;
49942;SDS011;36011;53.362;58.948;2023-06-22T16:58:59;6.32;;;3.25;;
49942;SDS011;36011;53.362;58.948;2023-06-22T17:02:06;5.18;;;3.33;;
49942;SDS011;36011;53.362;58.948;2023-06-22T17:05:22;4.30;;;3.22;;
49942;SDS011;36011;53.362;58.948;2023-06-22T17:08:28;3.40;;;2.55;;
49942;SDS011;36011;53.362;58.948;2023-06-22T17:11:35;3.17;;;2.20;;
49942;SDS011;36011;53.362;58.948;2023-06-22T17:14:38;2.67;;;1.90;;
49942;SDS011;36011;53.362;58.948;2023-06-22T17:17:43;3.67;;;2.30;;
49942;SDS011;36011;53.362;58.948;2023-06-22T17:20:48;4.25;;;2.20;;
49942;SDS011;36011;53.362;58.948;2023-06-22T17:23:52;4.05;;;2.25;;
49942;SDS011;36011;53.362;58.948;2023-06-22T17:26:59;3.35;;;2.47;;
49942;SDS011;36011;53.362;58.948;2023-06-22T17:30:04;4.78;;;2.80;;
49942;SDS011;36011;53.362;58.948;2023-06-22T17:33:10;3.95;;;2.95;;
49942;SDS011;36011;53.362;58.948;2023-06-22T17:36:19;4.68;;;3.75;;
49942;SDS011;36011;53.362;58.948;2023-06-22T17:39:28;5.57;;;3.40;;
49942;SDS011;36011;53.362;58.948;2023-06-22T17:42:36;5.50;;;3.60;;
49942;SDS011;36011;53.362;58.948;2023-06-22T17:45:42;5.03;;;3.13;;
49942;SDS011;36011;53.362;58.948;2023-06-22T17:48:47;3.63;;;2.42;;
49942;SDS011;36011;53.362;58.948;2023-06-22T17:51:52;3.45;;;2.30;;
49942;SDS011;36011;53.362;58.948;2023-06-22T17:54:57;2.75;;;2.03;;
49942;SDS011;36011;53.362;58.948;2023-06-22T17:58:07;4.85;;;2.00;;
49942;SDS011;36011;53.362;58.948;2023-06-22T18:01:13;3.60;;;2.17;;
49942;SDS011;36011;53.362;58.948;2023-06-22T18:04:31;3.05;;;2.42;;
49942;SDS011;36011;53.362;58.948;2023-06-22T18:07:39;5.15;;;2.92;;
49942;SDS011;36011;53.362;58.948;2023-06-22T18:13:44;4.85;;;2.63;;
49942;SDS011;36011;53.362;58.948;2023-06-22T18:16:50;4.93;;;3.45;;
49942;SDS011;36011;53.362;58.948;2023-06-22T18:19:57;5.30;;;3.40;;
49942;SDS011;36011;53.362;58.948;2023-06-22T18:23:08;5.97;;;3.92;;
49942;SDS011;36011;53.362;58.948;2023-06-22T18:26:17;3.45;;;2.65;;
49942;SDS011;36011;53.362;58.948;2023-06-22T18:29:24;4.68;;;2.65;;
49942;SDS011;36011;53.362;58.948;2023-06-22T18:32:32;2.33;;;2.00;;
49942;SDS011;36011;53.362;58.948;2023-06-22T18:35:37;2.65;;;2.10;;
49942;SDS011;36011;53.362;58.948;2023-06-22T18:38:42;3.83;;;2.00;;
49942;SDS011;36011;53.362;58.948;2023-06-22T18:41:53;2.42;;;1.80;;
49942;SDS011;36011;53.362;58.948;2023-06-22T18:44:58;2.53;;;1.90;;
49942;SDS011;36011;53.362;58.948;2023-06-22T18:48:07;5.32;;;1.88;;
49942;SDS011;36011;53.362;58.948;2023-06-22T18:51:11;2.83;;;1.75;;